Terminal Aerodrome Forecast
Issued by NWS

Home | Current Version | Previous Version | Text Only | Print | Product List | Glossary On
Versions: 1 2 3 4 5 6 7 8 9 10 11 12 13
000
FTUS41 KBTV 040529
TAFMSS
TAF
KMSS 040529Z 0406/0506 22007KT P6SM SCT250
     FM041400 22014G24KT P6SM FEW100 SCT250
     FM041700 22020G30KT P6SM SCT100 SCT250
     FM042300 23015G25KT P6SM OVC090
     FM050200 25010KT 6SM -RA OVC045=

USA.gov is the U.S. government's official web portal to all federal, state and local government web resources and services.